WZZ1762 ENVA-EPGD
Flight info
| Callsign | WZZ1762 |
|---|---|
| Flight time | 1h 24m |
| Altitude | 37000 |
| Route | EVNEN DCT ABUNO DCT ABAMA DCT PENOR N133 DOMAG T240 OGDAV |
| Aircraft | A321/M-SDE3FGHIRWY/LB1 |
Departure
| Time | 2026-04-29 17:29 |
|---|---|
| Airport | Trondheim Airport, Værnes (ENVA) |
Arrival
| Time | 2026-04-29 18:54 |
|---|---|
| Airport | Gdańsk Lech Wałęsa Airport (EPGD) |
| Time | Latitude | Longitude | Altitude | Speed | Heading |
|---|---|---|---|---|---|
| 2026-04-29 17:02 | 63.45505 | 10.91901 | 43 ft | 0 kts | 181° |
| 2026-04-29 17:20 | 63.45523 | 10.91901 | 43 ft | 4 kts | 171° |
| 2026-04-29 17:20 | 63.45547 | 10.91882 | 38 ft | 4 kts | 136° |
| 2026-04-29 17:21 | 63.45558 | 10.91840 | 41 ft | 2 kts | 91° |
| 2026-04-29 17:21 | 63.45558 | 10.91836 | 41 ft | 1 kts | 90° |
| 2026-04-29 17:22 | 63.45558 | 10.91837 | 41 ft | 0 kts | 90° |
| 2026-04-29 17:24 | 63.45558 | 10.91865 | 41 ft | 4 kts | 91° |
| 2026-04-29 17:24 | 63.45557 | 10.91926 | 41 ft | 4 kts | 90° |
| 2026-04-29 17:24 | 63.45557 | 10.91983 | 42 ft | 3 kts | 90° |
| 2026-04-29 17:24 | 63.45557 | 10.92031 | 43 ft | 4 kts | 90° |
| 2026-04-29 17:25 | 63.45557 | 10.92118 | 44 ft | 6 kts | 90° |
| 2026-04-29 17:25 | 63.45556 | 10.92210 | 45 ft | 6 kts | 90° |
| 2026-04-29 17:25 | 63.45556 | 10.92323 | 45 ft | 9 kts | 89° |
| 2026-04-29 17:25 | 63.45576 | 10.92423 | 45 ft | 7 kts | 49° |
| 2026-04-29 17:26 | 63.45593 | 10.92544 | 46 ft | 8 kts | 87° |
| 2026-04-29 17:26 | 63.45594 | 10.92663 | 48 ft | 7 kts | 89° |
| 2026-04-29 17:26 | 63.45594 | 10.92800 | 49 ft | 12 kts | 90° |
| 2026-04-29 17:26 | 63.45594 | 10.93043 | 50 ft | 17 kts | 90° |
| 2026-04-29 17:27 | 63.45593 | 10.93295 | 54 ft | 16 kts | 90° |
| 2026-04-29 17:27 | 63.45592 | 10.93525 | 54 ft | 14 kts | 90° |
| 2026-04-29 17:27 | 63.45593 | 10.93734 | 55 ft | 14 kts | 85° |
| 2026-04-29 17:27 | 63.45637 | 10.93919 | 58 ft | 14 kts | 47° |
| 2026-04-29 17:28 | 63.45707 | 10.94068 | 59 ft | 13 kts | 42° |
| 2026-04-29 17:28 | 63.45756 | 10.94003 | 63 ft | 10 kts | 278° |
| 2026-04-29 17:28 | 63.45756 | 10.93921 | 62 ft | 0 kts | 269° |
| 2026-04-29 17:28 | 63.45756 | 10.93889 | 61 ft | 6 kts | 270° |
| 2026-04-29 17:29 | 63.45759 | 10.93234 | 53 ft | 81 kts | 270° |
| 2026-04-29 17:29 | 63.45759 | 10.91485 | 37 ft | 144 kts | 270° |
| 2026-04-29 17:29 | 63.45772 | 10.88977 | 395 ft | 165 kts | 270° |
| 2026-04-29 17:29 | 63.45783 | 10.87245 | 903 ft | 164 kts | 271° |
| 2026-04-29 17:30 | 63.45788 | 10.83828 | 1884 ft | 167 kts | 272° |
| 2026-04-29 17:30 | 63.45795 | 10.81099 | 2216 ft | 185 kts | 272° |
| 2026-04-29 17:30 | 63.45797 | 10.78072 | 2436 ft | 204 kts | 271° |
| 2026-04-29 17:30 | 63.45797 | 10.74805 | 2989 ft | 213 kts | 271° |
| 2026-04-29 17:31 | 63.45795 | 10.71532 | 3894 ft | 213 kts | 272° |
| 2026-04-29 17:31 | 63.45792 | 10.68186 | 4725 ft | 216 kts | 272° |
| 2026-04-29 17:31 | 63.45787 | 10.64799 | 5546 ft | 219 kts | 272° |
| 2026-04-29 17:31 | 63.45784 | 10.61369 | 6332 ft | 222 kts | 273° |
| 2026-04-29 17:32 | 63.45784 | 10.57917 | 7071 ft | 227 kts | 273° |
| 2026-04-29 17:32 | 63.45439 | 10.54433 | 7764 ft | 239 kts | 242° |
| 2026-04-29 17:32 | 63.44158 | 10.51879 | 8308 ft | 264 kts | 206° |
| 2026-04-29 17:32 | 63.42302 | 10.50950 | 8868 ft | 281 kts | 185° |
| 2026-04-29 17:33 | 63.40366 | 10.51864 | 9511 ft | 293 kts | 150° |
| 2026-04-29 17:33 | 63.38834 | 10.54791 | 10168 ft | 297 kts | 124° |
| 2026-04-29 17:33 | 63.37811 | 10.58880 | 10561 ft | 307 kts | 102° |
| 2026-04-29 17:33 | 63.37508 | 10.63578 | 11002 ft | 312 kts | 85° |
| 2026-04-29 17:34 | 63.37478 | 10.68615 | 11177 ft | 335 kts | 84° |
| 2026-04-29 17:34 | 63.37477 | 10.73997 | 11317 ft | 358 kts | 84° |
| 2026-04-29 17:34 | 63.37485 | 10.79675 | 11644 ft | 372 kts | 85° |
| 2026-04-29 17:34 | 63.37487 | 10.85506 | 12256 ft | 378 kts | 85° |
| 2026-04-29 17:35 | 63.37467 | 10.95310 | 13352 ft | 386 kts | 85° |
| 2026-04-29 17:35 | 63.37438 | 11.03366 | 14272 ft | 391 kts | 85° |
| 2026-04-29 17:35 | 63.37416 | 11.09463 | 14849 ft | 395 kts | 85° |
| 2026-04-29 17:36 | 63.37279 | 11.15560 | 15426 ft | 404 kts | 93° |
| 2026-04-29 17:36 | 63.36538 | 11.21696 | 16006 ft | 417 kts | 108° |
| 2026-04-29 17:36 | 63.35128 | 11.27435 | 16590 ft | 427 kts | 123° |
| 2026-04-29 17:36 | 63.33103 | 11.32346 | 17156 ft | 436 kts | 139° |
| 2026-04-29 17:37 | 63.30556 | 11.36070 | 17721 ft | 441 kts | 155° |
| 2026-04-29 17:37 | 63.27715 | 11.38773 | 18283 ft | 445 kts | 158° |
| 2026-04-29 17:37 | 63.24831 | 11.41419 | 18840 ft | 449 kts | 158° |
| 2026-04-29 17:37 | 63.21933 | 11.44067 | 19347 ft | 453 kts | 159° |
| 2026-04-29 17:38 | 63.18998 | 11.46743 | 19881 ft | 456 kts | 158° |
| 2026-04-29 17:38 | 63.16095 | 11.49402 | 20400 ft | 458 kts | 158° |
| 2026-04-29 17:38 | 63.13139 | 11.52118 | 20925 ft | 461 kts | 158° |
| 2026-04-29 17:38 | 63.10163 | 11.54847 | 21435 ft | 464 kts | 158° |
| 2026-04-29 17:39 | 63.07175 | 11.57575 | 21933 ft | 466 kts | 158° |
| 2026-04-29 17:39 | 63.04173 | 11.60303 | 22416 ft | 469 kts | 158° |
| 2026-04-29 17:39 | 63.01122 | 11.62942 | 22905 ft | 471 kts | 162° |
| 2026-04-29 17:39 | 62.97933 | 11.64726 | 23376 ft | 472 kts | 172° |
| 2026-04-29 17:40 | 62.94672 | 11.65753 | 23850 ft | 474 kts | 174° |
| 2026-04-29 17:40 | 62.91425 | 11.66733 | 24258 ft | 477 kts | 174° |
| 2026-04-29 17:40 | 62.88120 | 11.67736 | 24647 ft | 479 kts | 174° |
| 2026-04-29 17:40 | 62.84808 | 11.68746 | 25011 ft | 481 kts | 174° |
| 2026-04-29 17:41 | 62.81476 | 11.69769 | 25401 ft | 483 kts | 174° |
| 2026-04-29 17:41 | 62.78131 | 11.70798 | 25777 ft | 486 kts | 174° |
| 2026-04-29 17:41 | 62.74814 | 11.71810 | 26150 ft | 488 kts | 174° |
| 2026-04-29 17:41 | 62.71432 | 11.72837 | 26505 ft | 490 kts | 174° |
| 2026-04-29 17:42 | 62.68046 | 11.73865 | 26853 ft | 493 kts | 174° |
| 2026-04-29 17:42 | 62.64628 | 11.74902 | 27208 ft | 495 kts | 174° |
| 2026-04-29 17:42 | 62.61215 | 11.75935 | 27353 ft | 496 kts | 174° |
| 2026-04-29 17:42 | 62.57785 | 11.76971 | 27371 ft | 496 kts | 174° |
| 2026-04-29 17:43 | 62.54365 | 11.78004 | 27373 ft | 496 kts | 174° |
| 2026-04-29 17:43 | 62.50978 | 11.79024 | 27375 ft | 496 kts | 174° |
| 2026-04-29 17:43 | 62.47549 | 11.80048 | 27377 ft | 496 kts | 174° |
| 2026-04-29 17:43 | 62.44124 | 11.81067 | 27373 ft | 496 kts | 174° |
| 2026-04-29 17:44 | 62.40692 | 11.82085 | 27385 ft | 497 kts | 174° |
| 2026-04-29 17:44 | 62.37258 | 11.83099 | 27386 ft | 497 kts | 174° |
| 2026-04-29 17:44 | 62.33872 | 11.84101 | 27383 ft | 497 kts | 174° |
| 2026-04-29 17:44 | 62.30452 | 11.85117 | 27378 ft | 497 kts | 174° |
| 2026-04-29 17:45 | 62.27024 | 11.86134 | 27390 ft | 497 kts | 174° |
| 2026-04-29 17:45 | 62.23591 | 11.87149 | 27423 ft | 498 kts | 174° |
| 2026-04-29 17:45 | 62.20179 | 11.88155 | 27769 ft | 500 kts | 174° |
| 2026-04-29 17:45 | 62.16761 | 11.89159 | 28106 ft | 503 kts | 174° |
| 2026-04-29 17:46 | 62.13279 | 11.90177 | 28468 ft | 505 kts | 174° |
| 2026-04-29 17:46 | 62.09795 | 11.91191 | 28834 ft | 507 kts | 174° |
| 2026-04-29 17:46 | 62.06280 | 11.92211 | 29175 ft | 509 kts | 174° |
| 2026-04-29 17:46 | 62.02782 | 11.93283 | 29640 ft | 509 kts | 171° |
| 2026-04-29 17:47 | 61.99356 | 11.95159 | 30122 ft | 510 kts | 162° |
| 2026-04-29 17:47 | 61.96085 | 11.98065 | 30551 ft | 509 kts | 154° |
| 2026-04-29 17:47 | 61.92907 | 12.01380 | 30942 ft | 509 kts | 154° |
| 2026-04-29 17:47 | 61.89709 | 12.04685 | 31303 ft | 508 kts | 154° |
| 2026-04-29 17:48 | 61.86559 | 12.07911 | 31664 ft | 508 kts | 154° |
| 2026-04-29 17:48 | 61.83342 | 12.11189 | 32053 ft | 508 kts | 154° |
| 2026-04-29 17:48 | 61.80189 | 12.14399 | 32424 ft | 508 kts | 154° |
| 2026-04-29 17:48 | 61.77000 | 12.17649 | 32776 ft | 507 kts | 154° |
| 2026-04-29 17:49 | 61.73811 | 12.20891 | 33136 ft | 507 kts | 154° |
| 2026-04-29 17:49 | 61.70633 | 12.24113 | 33491 ft | 507 kts | 154° |
| 2026-04-29 17:49 | 61.67447 | 12.27337 | 33865 ft | 507 kts | 154° |
| 2026-04-29 17:49 | 61.64313 | 12.30503 | 34209 ft | 506 kts | 154° |
| 2026-04-29 17:50 | 61.61123 | 12.33716 | 34523 ft | 506 kts | 154° |
| 2026-04-29 17:50 | 61.57945 | 12.36909 | 34826 ft | 506 kts | 154° |
| 2026-04-29 17:50 | 61.54764 | 12.40095 | 35147 ft | 505 kts | 154° |
| 2026-04-29 17:50 | 61.51590 | 12.43266 | 35413 ft | 504 kts | 154° |
| 2026-04-29 17:51 | 61.48420 | 12.46430 | 35707 ft | 504 kts | 154° |
| 2026-04-29 17:51 | 61.45301 | 12.49538 | 36015 ft | 503 kts | 154° |
| 2026-04-29 17:51 | 61.42126 | 12.52698 | 36318 ft | 502 kts | 154° |
| 2026-04-29 17:51 | 61.38967 | 12.55833 | 36605 ft | 501 kts | 154° |
| 2026-04-29 17:52 | 61.35823 | 12.58942 | 36912 ft | 500 kts | 154° |
| 2026-04-29 17:52 | 61.33734 | 12.61006 | 37097 ft | 500 kts | 154° |
| 2026-04-29 17:52 | 61.29575 | 12.65105 | 37328 ft | 499 kts | 154° |
| 2026-04-29 17:53 | 61.23293 | 12.71268 | 37354 ft | 498 kts | 154° |
| 2026-04-29 17:53 | 61.17014 | 12.77412 | 37357 ft | 497 kts | 153° |
| 2026-04-29 17:54 | 61.10797 | 12.83456 | 37354 ft | 496 kts | 153° |
| 2026-04-29 17:54 | 61.04538 | 12.89523 | 37349 ft | 496 kts | 153° |
| 2026-04-29 17:55 | 60.98280 | 12.95553 | 37350 ft | 496 kts | 153° |
| 2026-04-29 17:55 | 60.92048 | 13.01540 | 37366 ft | 496 kts | 153° |
| 2026-04-29 17:56 | 60.85785 | 13.07522 | 37363 ft | 496 kts | 153° |
| 2026-04-29 17:56 | 60.79509 | 13.13502 | 37372 ft | 496 kts | 153° |
| 2026-04-29 17:57 | 60.73277 | 13.19413 | 37367 ft | 496 kts | 153° |
| 2026-04-29 17:57 | 60.67012 | 13.25343 | 37371 ft | 495 kts | 153° |
| 2026-04-29 17:58 | 60.60750 | 13.31224 | 37365 ft | 495 kts | 153° |
| 2026-04-29 17:58 | 60.54497 | 13.37073 | 37373 ft | 494 kts | 153° |
| 2026-04-29 17:59 | 60.49296 | 13.41916 | 37364 ft | 494 kts | 153° |
| 2026-04-29 17:59 | 60.42027 | 13.48671 | 37371 ft | 494 kts | 153° |
| 2026-04-29 18:00 | 60.36835 | 13.53474 | 37363 ft | 494 kts | 153° |
| 2026-04-29 18:00 | 60.30562 | 13.59239 | 37342 ft | 494 kts | 153° |
| 2026-04-29 18:01 | 60.24296 | 13.64964 | 37351 ft | 494 kts | 153° |
| 2026-04-29 18:01 | 60.18070 | 13.70650 | 37351 ft | 494 kts | 153° |
| 2026-04-29 18:02 | 60.11784 | 13.76380 | 37361 ft | 494 kts | 153° |
| 2026-04-29 18:02 | 60.05540 | 13.82036 | 37352 ft | 495 kts | 153° |
| 2026-04-29 18:03 | 59.99250 | 13.87704 | 37368 ft | 495 kts | 153° |
| 2026-04-29 18:03 | 59.92958 | 13.93355 | 37368 ft | 495 kts | 153° |
| 2026-04-29 18:04 | 59.86703 | 13.98946 | 37378 ft | 495 kts | 153° |
| 2026-04-29 18:04 | 59.80417 | 14.04553 | 37393 ft | 495 kts | 153° |
| 2026-04-29 18:05 | 59.74107 | 14.10154 | 37400 ft | 496 kts | 153° |
| 2026-04-29 18:05 | 59.67797 | 14.15718 | 37409 ft | 496 kts | 153° |
| 2026-04-29 18:06 | 59.61515 | 14.21244 | 37407 ft | 497 kts | 153° |
| 2026-04-29 18:06 | 59.55174 | 14.26789 | 37414 ft | 497 kts | 153° |
| 2026-04-29 18:07 | 59.48841 | 14.32297 | 37414 ft | 497 kts | 153° |
| 2026-04-29 18:07 | 59.42532 | 14.37786 | 37414 ft | 497 kts | 153° |
| 2026-04-29 18:08 | 59.36195 | 14.43286 | 37416 ft | 497 kts | 153° |
| 2026-04-29 18:08 | 59.29867 | 14.48745 | 37415 ft | 497 kts | 153° |
| 2026-04-29 18:09 | 59.23529 | 14.54167 | 37416 ft | 497 kts | 153° |
| 2026-04-29 18:09 | 59.17200 | 14.59609 | 37414 ft | 496 kts | 152° |
| 2026-04-29 18:10 | 59.10948 | 14.65145 | 37414 ft | 495 kts | 151° |
| 2026-04-29 18:10 | 59.04632 | 14.70767 | 37365 ft | 499 kts | 152° |
| 2026-04-29 18:11 | 58.98314 | 14.76338 | 37369 ft | 503 kts | 152° |
| 2026-04-29 18:11 | 58.91899 | 14.81931 | 37385 ft | 506 kts | 152° |
| 2026-04-29 18:12 | 58.85502 | 14.87480 | 37408 ft | 507 kts | 152° |
| 2026-04-29 18:12 | 58.79037 | 14.93079 | 37422 ft | 508 kts | 152° |
| 2026-04-29 18:13 | 58.72559 | 14.98653 | 37429 ft | 509 kts | 152° |
| 2026-04-29 18:13 | 58.66110 | 15.04193 | 37435 ft | 509 kts | 152° |
| 2026-04-29 18:14 | 58.59623 | 15.09762 | 37432 ft | 510 kts | 152° |
| 2026-04-29 18:14 | 58.53178 | 15.15268 | 37426 ft | 510 kts | 152° |
| 2026-04-29 18:15 | 58.46687 | 15.20774 | 37417 ft | 510 kts | 152° |
| 2026-04-29 18:15 | 58.40197 | 15.26259 | 37415 ft | 510 kts | 152° |
| 2026-04-29 18:16 | 58.33694 | 15.31739 | 37413 ft | 510 kts | 152° |
| 2026-04-29 18:16 | 58.27216 | 15.37168 | 37417 ft | 510 kts | 152° |
| 2026-04-29 18:17 | 58.20702 | 15.42608 | 37417 ft | 510 kts | 152° |
| 2026-04-29 18:17 | 58.14232 | 15.47987 | 37423 ft | 511 kts | 152° |
| 2026-04-29 18:18 | 58.07714 | 15.53391 | 37428 ft | 511 kts | 152° |
| 2026-04-29 18:18 | 58.01189 | 15.58782 | 37433 ft | 511 kts | 152° |
| 2026-04-29 18:19 | 57.94667 | 15.64137 | 37434 ft | 512 kts | 152° |
| 2026-04-29 18:19 | 57.88128 | 15.69486 | 37435 ft | 512 kts | 152° |
| 2026-04-29 18:20 | 57.81636 | 15.74782 | 37433 ft | 511 kts | 152° |
| 2026-04-29 18:20 | 57.75104 | 15.80092 | 37435 ft | 511 kts | 152° |
| 2026-04-29 18:21 | 57.68585 | 15.85369 | 37442 ft | 511 kts | 152° |
| 2026-04-29 18:21 | 57.62076 | 15.90617 | 37430 ft | 510 kts | 152° |
| 2026-04-29 18:22 | 57.55537 | 15.95867 | 37440 ft | 510 kts | 152° |
| 2026-04-29 18:22 | 57.49007 | 16.01075 | 37443 ft | 510 kts | 152° |
| 2026-04-29 18:23 | 57.42523 | 16.06232 | 37444 ft | 510 kts | 152° |
| 2026-04-29 18:23 | 57.35991 | 16.11414 | 37450 ft | 509 kts | 152° |
| 2026-04-29 18:24 | 57.29465 | 16.16576 | 37453 ft | 509 kts | 152° |
| 2026-04-29 18:24 | 57.22974 | 16.21688 | 37453 ft | 510 kts | 152° |
| 2026-04-29 18:25 | 57.16436 | 16.26821 | 37459 ft | 510 kts | 152° |
| 2026-04-29 18:25 | 57.09930 | 16.31903 | 37461 ft | 510 kts | 152° |
| 2026-04-29 18:26 | 57.03390 | 16.36996 | 37465 ft | 510 kts | 152° |
| 2026-04-29 18:26 | 56.96840 | 16.42074 | 37465 ft | 510 kts | 152° |
| 2026-04-29 18:27 | 56.90342 | 16.47093 | 37465 ft | 510 kts | 152° |
| 2026-04-29 18:27 | 56.87073 | 16.49611 | 37286 ft | 508 kts | 152° |
| 2026-04-29 18:27 | 56.83817 | 16.52110 | 36713 ft | 506 kts | 151° |
| 2026-04-29 18:27 | 56.80579 | 16.54590 | 36453 ft | 502 kts | 151° |
| 2026-04-29 18:28 | 56.77366 | 16.57048 | 36196 ft | 501 kts | 151° |
| 2026-04-29 18:28 | 56.74145 | 16.59510 | 35948 ft | 501 kts | 150° |
| 2026-04-29 18:28 | 56.70957 | 16.61937 | 35702 ft | 502 kts | 150° |
| 2026-04-29 18:28 | 56.67730 | 16.64391 | 35457 ft | 503 kts | 150° |
| 2026-04-29 18:29 | 56.64492 | 16.66853 | 35215 ft | 504 kts | 150° |
| 2026-04-29 18:29 | 56.62345 | 16.68487 | 35062 ft | 504 kts | 150° |
| 2026-04-29 18:29 | 56.57994 | 16.71796 | 34742 ft | 506 kts | 149° |
| 2026-04-29 18:29 | 56.54740 | 16.74266 | 34500 ft | 507 kts | 149° |
| 2026-04-29 18:30 | 56.51508 | 16.76707 | 34061 ft | 508 kts | 149° |
| 2026-04-29 18:30 | 56.48241 | 16.79162 | 33669 ft | 508 kts | 149° |
| 2026-04-29 18:30 | 56.44967 | 16.81620 | 33396 ft | 509 kts | 149° |
| 2026-04-29 18:30 | 56.41691 | 16.84081 | 33151 ft | 509 kts | 149° |
| 2026-04-29 18:31 | 56.38422 | 16.86526 | 32885 ft | 509 kts | 149° |
| 2026-04-29 18:31 | 56.35142 | 16.88969 | 32617 ft | 510 kts | 149° |
| 2026-04-29 18:31 | 56.31852 | 16.91418 | 32365 ft | 510 kts | 149° |
| 2026-04-29 18:31 | 56.28568 | 16.93862 | 32108 ft | 510 kts | 149° |
| 2026-04-29 18:32 | 56.25323 | 16.96272 | 31854 ft | 510 kts | 149° |
| 2026-04-29 18:32 | 56.18738 | 17.01152 | 31358 ft | 511 kts | 149° |
| 2026-04-29 18:32 | 56.15448 | 17.03587 | 31119 ft | 511 kts | 149° |
| 2026-04-29 18:33 | 56.12186 | 17.05995 | 30871 ft | 511 kts | 150° |
| 2026-04-29 18:33 | 56.08898 | 17.08416 | 30633 ft | 511 kts | 150° |
| 2026-04-29 18:33 | 56.05606 | 17.10834 | 30369 ft | 511 kts | 150° |
| 2026-04-29 18:33 | 56.02314 | 17.13248 | 30084 ft | 511 kts | 150° |
| 2026-04-29 18:34 | 55.99011 | 17.15668 | 29805 ft | 511 kts | 150° |
| 2026-04-29 18:34 | 55.96823 | 17.17268 | 29627 ft | 512 kts | 150° |
| 2026-04-29 18:34 | 55.92416 | 17.20489 | 29252 ft | 512 kts | 150° |
| 2026-04-29 18:34 | 55.89121 | 17.22894 | 28977 ft | 511 kts | 150° |
| 2026-04-29 18:35 | 55.85868 | 17.25261 | 28708 ft | 509 kts | 150° |
| 2026-04-29 18:35 | 55.82562 | 17.27587 | 28436 ft | 508 kts | 152° |
| 2026-04-29 18:35 | 55.79253 | 17.29813 | 27935 ft | 505 kts | 153° |
| 2026-04-29 18:35 | 55.76005 | 17.31923 | 27415 ft | 499 kts | 153° |
| 2026-04-29 18:36 | 55.72758 | 17.34001 | 26901 ft | 492 kts | 153° |
| 2026-04-29 18:36 | 55.69556 | 17.36048 | 26389 ft | 486 kts | 153° |
| 2026-04-29 18:36 | 55.66401 | 17.38083 | 25915 ft | 479 kts | 153° |
| 2026-04-29 18:36 | 55.63284 | 17.40113 | 25420 ft | 473 kts | 153° |
| 2026-04-29 18:37 | 55.60205 | 17.42132 | 24944 ft | 468 kts | 153° |
| 2026-04-29 18:37 | 55.57178 | 17.44124 | 24472 ft | 462 kts | 153° |
| 2026-04-29 18:37 | 55.54219 | 17.46071 | 24007 ft | 457 kts | 153° |
| 2026-04-29 18:37 | 55.51245 | 17.48020 | 23455 ft | 452 kts | 153° |
| 2026-04-29 18:38 | 55.48305 | 17.49938 | 22908 ft | 445 kts | 153° |
| 2026-04-29 18:38 | 55.45422 | 17.51814 | 22375 ft | 437 kts | 153° |
| 2026-04-29 18:38 | 55.42585 | 17.53657 | 21839 ft | 430 kts | 153° |
| 2026-04-29 18:38 | 55.39797 | 17.55463 | 21328 ft | 424 kts | 154° |
| 2026-04-29 18:39 | 55.37074 | 17.57224 | 20811 ft | 417 kts | 154° |
| 2026-04-29 18:39 | 55.34362 | 17.58974 | 20326 ft | 409 kts | 154° |
| 2026-04-29 18:39 | 55.31715 | 17.60676 | 19829 ft | 398 kts | 154° |
| 2026-04-29 18:39 | 55.29134 | 17.62336 | 19254 ft | 391 kts | 154° |
| 2026-04-29 18:40 | 55.26634 | 17.63953 | 18688 ft | 384 kts | 155° |
| 2026-04-29 18:40 | 55.24143 | 17.65561 | 18023 ft | 377 kts | 155° |
| 2026-04-29 18:40 | 55.21702 | 17.67130 | 17389 ft | 371 kts | 155° |
| 2026-04-29 18:40 | 55.19312 | 17.68664 | 16753 ft | 365 kts | 155° |
| 2026-04-29 18:41 | 55.12282 | 17.73173 | 14931 ft | 350 kts | 156° |
| 2026-04-29 18:41 | 55.10001 | 17.74624 | 14338 ft | 346 kts | 156° |
| 2026-04-29 18:42 | 55.07776 | 17.76037 | 13713 ft | 342 kts | 156° |
| 2026-04-29 18:42 | 55.05550 | 17.77450 | 13155 ft | 336 kts | 156° |
| 2026-04-29 18:42 | 55.03377 | 17.78828 | 12877 ft | 328 kts | 156° |
| 2026-04-29 18:42 | 55.01237 | 17.80188 | 12493 ft | 326 kts | 156° |
| 2026-04-29 18:43 | 54.99105 | 17.81544 | 12147 ft | 323 kts | 156° |
| 2026-04-29 18:43 | 54.97000 | 17.82878 | 11784 ft | 321 kts | 156° |
| 2026-04-29 18:43 | 54.94907 | 17.84200 | 11428 ft | 319 kts | 156° |
| 2026-04-29 18:43 | 54.92855 | 17.85496 | 11090 ft | 316 kts | 156° |
| 2026-04-29 18:44 | 54.90789 | 17.86801 | 10742 ft | 314 kts | 156° |
| 2026-04-29 18:44 | 54.88743 | 17.88097 | 10485 ft | 310 kts | 156° |
| 2026-04-29 18:44 | 54.86719 | 17.89379 | 10474 ft | 310 kts | 156° |
| 2026-04-29 18:44 | 54.84673 | 17.90670 | 10473 ft | 311 kts | 156° |
| 2026-04-29 18:45 | 54.82634 | 17.91951 | 10475 ft | 311 kts | 156° |
| 2026-04-29 18:45 | 54.80600 | 17.93228 | 10477 ft | 311 kts | 156° |
| 2026-04-29 18:45 | 54.79254 | 17.94072 | 10479 ft | 311 kts | 156° |
| 2026-04-29 18:45 | 54.76547 | 17.95769 | 10476 ft | 311 kts | 156° |
| 2026-04-29 18:46 | 54.74513 | 17.97049 | 10478 ft | 311 kts | 156° |
| 2026-04-29 18:46 | 54.73160 | 17.97898 | 10478 ft | 311 kts | 156° |
| 2026-04-29 18:46 | 54.71125 | 17.99169 | 10478 ft | 311 kts | 156° |
| 2026-04-29 18:46 | 54.69088 | 18.00437 | 10480 ft | 311 kts | 156° |
| 2026-04-29 18:47 | 54.67053 | 18.01704 | 10481 ft | 309 kts | 156° |
| 2026-04-29 18:47 | 54.65072 | 18.02927 | 10474 ft | 294 kts | 156° |
| 2026-04-29 18:47 | 54.63190 | 18.04086 | 10473 ft | 279 kts | 156° |
| 2026-04-29 18:47 | 54.61420 | 18.05175 | 10473 ft | 268 kts | 156° |
| 2026-04-29 18:48 | 54.59669 | 18.06261 | 10479 ft | 266 kts | 155° |
| 2026-04-29 18:48 | 54.57922 | 18.07342 | 10479 ft | 266 kts | 158° |
| 2026-04-29 18:48 | 54.56087 | 18.07840 | 10475 ft | 271 kts | 180° |
| 2026-04-29 18:48 | 54.54228 | 18.07233 | 10424 ft | 274 kts | 201° |
| 2026-04-29 18:49 | 54.52443 | 18.05992 | 9763 ft | 286 kts | 203° |
| 2026-04-29 18:49 | 54.50541 | 18.04857 | 8917 ft | 292 kts | 186° |
| 2026-04-29 18:49 | 54.48565 | 18.05285 | 8107 ft | 287 kts | 151° |
| 2026-04-29 18:49 | 54.47082 | 18.07422 | 7311 ft | 274 kts | 117° |
| 2026-04-29 18:50 | 54.46224 | 18.10318 | 6507 ft | 271 kts | 108° |
| 2026-04-29 18:50 | 54.45557 | 18.13307 | 5681 ft | 271 kts | 105° |
| 2026-04-29 18:50 | 54.44926 | 18.16359 | 4853 ft | 271 kts | 106° |
| 2026-04-29 18:50 | 54.44284 | 18.19394 | 4188 ft | 265 kts | 108° |
| 2026-04-29 18:51 | 54.43653 | 18.22233 | 4001 ft | 242 kts | 108° |
| 2026-04-29 18:51 | 54.43049 | 18.24861 | 3487 ft | 236 kts | 109° |
| 2026-04-29 18:51 | 54.42445 | 18.27424 | 2983 ft | 227 kts | 109° |
| 2026-04-29 18:51 | 54.41852 | 18.29889 | 2511 ft | 218 kts | 110° |
| 2026-04-29 18:52 | 54.41288 | 18.32210 | 2192 ft | 199 kts | 110° |
| 2026-04-29 18:52 | 54.40786 | 18.34265 | 2059 ft | 175 kts | 110° |
| 2026-04-29 18:52 | 54.40331 | 18.36131 | 2000 ft | 164 kts | 109° |
| 2026-04-29 18:52 | 54.39900 | 18.37898 | 1892 ft | 161 kts | 110° |
| 2026-04-29 18:53 | 54.39484 | 18.39605 | 1684 ft | 150 kts | 109° |
| 2026-04-29 18:53 | 54.39097 | 18.41253 | 1203 ft | 149 kts | 109° |
| 2026-04-29 18:53 | 54.38685 | 18.42885 | 811 ft | 145 kts | 111° |
| 2026-04-29 18:53 | 54.38292 | 18.44464 | 567 ft | 143 kts | 109° |
| 2026-04-29 18:54 | 54.37919 | 18.46010 | 463 ft | 134 kts | 111° |
| 2026-04-29 18:54 | 54.37599 | 18.47265 | 459 ft | 91 kts | 113° |
| 2026-04-29 18:54 | 54.37422 | 18.47992 | 473 ft | 42 kts | 112° |
| 2026-04-29 18:54 | 54.37345 | 18.48293 | 477 ft | 20 kts | 114° |
| 2026-04-29 18:55 | 54.37299 | 18.48499 | 488 ft | 17 kts | 91° |
| 2026-04-29 18:55 | 54.37374 | 18.48641 | 489 ft | 18 kts | 17° |
| 2026-04-29 18:55 | 54.37451 | 18.48557 | 485 ft | 16 kts | 300° |
| 2026-04-29 18:55 | 54.37504 | 18.48357 | 474 ft | 20 kts | 291° |
| 2026-04-29 18:56 | 54.37566 | 18.48119 | 472 ft | 24 kts | 294° |
| 2026-04-29 18:56 | 54.37627 | 18.47869 | 469 ft | 23 kts | 293° |
| 2026-04-29 18:56 | 54.37690 | 18.47612 | 464 ft | 20 kts | 293° |
| 2026-04-29 18:56 | 54.37726 | 18.47465 | 462 ft | 10 kts | 292° |
| 2026-04-29 18:57 | 54.37758 | 18.47338 | 460 ft | 14 kts | 294° |
| 2026-04-29 18:57 | 54.37799 | 18.47179 | 460 ft | 16 kts | 293° |
| 2026-04-29 18:57 | 54.37839 | 18.47012 | 457 ft | 12 kts | 292° |
| 2026-04-29 18:57 | 54.37863 | 18.46923 | 459 ft | 6 kts | 304° |
| 2026-04-29 18:58 | 54.37899 | 18.46891 | 460 ft | 7 kts | 329° |
| 2026-04-29 18:58 | 54.37947 | 18.46886 | 460 ft | 8 kts | 20° |
| 2026-04-29 18:58 | 54.37982 | 18.46914 | 460 ft | 4 kts | 22° |
| 2026-04-29 18:58 | 54.37987 | 18.46918 | 460 ft | 0 kts | 22° |